Flight Track Log - Related Links

Times and Time Zones

All times are in EDT time to prevent confusion due to time zone crossing. See the FLG3580 flight status page for this flight to view local times or setup timezone preferences in your user account.

Time Position Orientation Groundspeed Altitude Reporting Facility
EDT Latitude Longitude Course Direction KTS MPH feet Rate Location/Type
Tue 01:48:03 PM 46.7844 -92.3506 215° Southwest 190 219 6,300  Level Minneapolis Center
Tue 01:49:00 PM 46.6465 -92.4548 223° Southwest  Level FlightAware Approximate
Tue 01:49:05 PM 46.7342 -92.4208 224° Southwest 214 246 8,700  Level Minneapolis Center
Tue 01:50:00 PM 46.5978 -92.5198 222° Southwest  Level FlightAware Approximate
Tue 01:50:19 PM 46.6797 -92.4928 222° Southwest 248 285 10,900  Level Minneapolis Center
Tue 01:51:00 PM 46.5491 -92.5846 225° Southwest  Level FlightAware Approximate
Tue 01:51:22 PM 46.6017 -92.5944 222° Southwest 300 345 12,000  Level Minneapolis Center
Tue 01:52:00 PM 46.4894 -92.6700 225° Southwest  Level FlightAware Approximate
Tue 01:52:24 PM 46.5261 -92.6964 223° Southwest 349 402 12,000  Level Minneapolis Center
Tue 01:53:00 PM 46.4292 -92.7542 215° Southwest  Level FlightAware Approximate
Tue 01:53:26 PM 46.4500 -92.7972 222° Southwest 367 422 12,000  Level Minneapolis Center
Tue 01:54:28 PM 46.3606 -92.9139 222° Southwest 363 418 12,000  Level Minneapolis Center
Tue 01:55:30 PM 46.2878 -93.0111 223° Southwest 359 413 12,000  Level Minneapolis Center
Tue 01:56:32 PM 46.2147 -93.1056 222° Southwest 355 409 12,000  Level Minneapolis Center
Tue 01:57:34 PM 46.1353 -93.2094 222° Southwest 353 406 12,000  Level Minneapolis Center
Tue 01:58:37 PM 46.0633 -93.3031 222° Southwest 350 403 12,000  Level Minneapolis Center
Tue 01:59:39 PM 45.9914 -93.3961 222° Southwest 350 403 12,000  Level Minneapolis Center
Tue 02:00:41 PM 45.9192 -93.4908 222° Southwest 351 404 12,000  Level Minneapolis Center
Tue 02:01:43 PM 45.8458 -93.5831 221° Southwest 352 405 12,000  Level Minneapolis Center
Tue 02:02:45 PM 45.7542 -93.6811 217° Southwest 351 404 12,000  Level Minneapolis Center
Tue 02:03:47 PM 45.6572 -93.6478 166° South 363 418 12,000 -435 Level Minneapolis Center
Tue 02:04:49 PM 45.5694 -93.6008 159° South 335 386 11,100 -484 Descending Minneapolis Center
Tue 02:05:51 PM 45.4886 -93.5578 160° South 313 360 11,000 -48 Descending Minneapolis Center
Tue 02:06:53 PM 45.4017 -93.5100 159° South 335 386 11,000  Level Minneapolis Center
Tue 02:07:55 PM 45.3103 -93.4617 160° South 349 402 11,000  Level Minneapolis Center
Tue 02:08:58 PM 45.1997 -93.4028 159° South 355 409 11,000  Level Minneapolis Center
Tue 02:10:00 PM 45.1069 -93.3536 159° South 356 410 11,000 -581 Level Minneapolis Center
Tue 02:11:02 PM 45.0253 -93.3086 159° South 311 358 9,800 -1,210 Descending Minneapolis Center
Tue 02:12:04 PM 44.9494 -93.3039 177° South 272 313 8,500 -871 Descending Minneapolis Center
Tue 02:13:06 PM 44.8814 -93.3050 181° South 248 285 8,000 -532 Descending Minneapolis Center
Tue 02:14:08 PM 44.8053 -93.3050 180° South 232 267 7,400 -968 Descending Minneapolis Center
Tue 02:15:10 PM 44.7419 -93.3064 181° South 235 270 6,000 -1,258 Descending Minneapolis Center
Tue 02:16:12 PM 44.6944 -93.2828 161° South 211 243 4,800 -1,452 Descending Minneapolis Center
Tue 02:17:14 PM 44.7200 -93.2081 64° Northeast 198 228 3,000 -919 Descending Minneapolis Center
Tue 02:18:16 PM 44.7622 -93.2083 360° North 164 189 2,900 -432 Descending Minneapolis Center
Tue 02:19:19 PM 44.8036 -93.2208 348° North 157 181 2,100 -720 Descending Minneapolis Center
Tue 02:20:21 PM 44.8450 -93.2308 350° North 153 176 1,400 -677 Descending Minneapolis Center

Login

Don't have an account? Register now (free) for customized features, flight alerts, and more!